sensor_id;sensor_type;location;lat;lon;timestamp;P1;durP1;ratioP1;P2;durP2;ratioP2
32790;SDS011;19143;59.322;14.502;2023-04-24T00:00:31;29.60;;;15.57;;
32790;SDS011;19143;59.322;14.502;2023-04-24T00:11:58;32.87;;;15.63;;
32790;SDS011;19143;59.322;14.502;2023-04-24T00:25:25;35.07;;;16.60;;
32790;SDS011;19143;59.322;14.502;2023-04-24T00:27:56;41.10;;;16.90;;
32790;SDS011;19143;59.322;14.502;2023-04-24T00:30:23;34.20;;;16.30;;
32790;SDS011;19143;59.322;14.502;2023-04-24T00:32:50;36.33;;;17.10;;
32790;SDS011;19143;59.322;14.502;2023-04-24T00:35:18;35.27;;;16.50;;
32790;SDS011;19143;59.322;14.502;2023-04-24T00:37:48;35.77;;;16.90;;
32790;SDS011;19143;59.322;14.502;2023-04-24T00:40:30;37.93;;;16.80;;
32790;SDS011;19143;59.322;14.502;2023-04-24T00:42:59;38.77;;;17.37;;
32790;SDS011;19143;59.322;14.502;2023-04-24T00:45:31;40.13;;;18.10;;
32790;SDS011;19143;59.322;14.502;2023-04-24T00:50:38;32.47;;;16.00;;
32790;SDS011;19143;59.322;14.502;2023-04-24T00:53:07;35.07;;;16.57;;
32790;SDS011;19143;59.322;14.502;2023-04-24T00:55:36;36.13;;;16.70;;
32790;SDS011;19143;59.322;14.502;2023-04-24T00:58:04;32.87;;;16.33;;
32790;SDS011;19143;59.322;14.502;2023-04-24T01:00:33;30.03;;;16.07;;
32790;SDS011;19143;59.322;14.502;2023-04-24T01:03:01;40.43;;;16.80;;
32790;SDS011;19143;59.322;14.502;2023-04-24T01:16:52;35.17;;;17.07;;
32790;SDS011;19143;59.322;14.502;2023-04-24T01:19:33;30.73;;;16.20;;
32790;SDS011;19143;59.322;14.502;2023-04-24T01:22:01;33.60;;;15.77;;
32790;SDS011;19143;59.322;14.502;2023-04-24T01:24:33;32.73;;;15.73;;
32790;SDS011;19143;59.322;14.502;2023-04-24T01:27:02;30.50;;;15.60;;
32790;SDS011;19143;59.322;14.502;2023-04-24T01:29:30;34.17;;;15.70;;
32790;SDS011;19143;59.322;14.502;2023-04-24T01:31:59;34.73;;;15.47;;
32790;SDS011;19143;59.322;14.502;2023-04-24T01:34:29;25.87;;;14.50;;
32790;SDS011;19143;59.322;14.502;2023-04-24T02:11:30;21.10;;;11.67;;
32790;SDS011;19143;59.322;14.502;2023-04-24T02:14:11;27.67;;;13.87;;
32790;SDS011;19143;59.322;14.502;2023-04-24T02:16:58;31.67;;;13.30;;
32790;SDS011;19143;59.322;14.502;2023-04-24T02:19:27;24.07;;;12.23;;
32790;SDS011;19143;59.322;14.502;2023-04-24T02:22:10;24.67;;;12.63;;
32790;SDS011;19143;59.322;14.502;2023-04-24T02:24:50;25.07;;;12.40;;
32790;SDS011;19143;59.322;14.502;2023-04-24T02:27:29;24.10;;;12.37;;
32790;SDS011;19143;59.322;14.502;2023-04-24T02:29:57;24.20;;;11.90;;
32790;SDS011;19143;59.322;14.502;2023-04-24T02:32:25;29.03;;;12.67;;
32790;SDS011;19143;59.322;14.502;2023-04-24T02:34:56;22.70;;;11.63;;
32790;SDS011;19143;59.322;14.502;2023-04-24T02:37:24;24.40;;;12.23;;
32790;SDS011;19143;59.322;14.502;2023-04-24T02:39:57;20.23;;;11.40;;
32790;SDS011;19143;59.322;14.502;2023-04-24T02:42:41;21.77;;;11.27;;
32790;SDS011;19143;59.322;14.502;2023-04-24T02:45:10;25.33;;;11.67;;
32790;SDS011;19143;59.322;14.502;2023-04-24T02:47:39;25.70;;;11.73;;
32790;SDS011;19143;59.322;14.502;2023-04-24T02:50:07;23.13;;;11.30;;
32790;SDS011;19143;59.322;14.502;2023-04-24T02:52:35;21.20;;;11.07;;
32790;SDS011;19143;59.322;14.502;2023-04-24T02:55:02;24.77;;;11.53;;
32790;SDS011;19143;59.322;14.502;2023-04-24T02:57:29;20.50;;;11.33;;
32790;SDS011;19143;59.322;14.502;2023-04-24T03:00:00;19.87;;;10.83;;
32790;SDS011;19143;59.322;14.502;2023-04-24T03:02:28;19.70;;;11.07;;
32790;SDS011;19143;59.322;14.502;2023-04-24T03:04:55;21.33;;;12.17;;
32790;SDS011;19143;59.322;14.502;2023-04-24T03:07:23;22.67;;;11.23;;
32790;SDS011;19143;59.322;14.502;2023-04-24T03:09:52;21.20;;;11.03;;
32790;SDS011;19143;59.322;14.502;2023-04-24T03:12:34;23.47;;;12.37;;
32790;SDS011;19143;59.322;14.502;2023-04-24T03:15:13;22.63;;;11.37;;
32790;SDS011;19143;59.322;14.502;2023-04-24T03:17:41;6.83;;;4.83;;
32790;SDS011;19143;59.322;14.502;2023-04-24T03:20:08;3.77;;;3.47;;
32790;SDS011;19143;59.322;14.502;2023-04-24T03:22:35;2.60;;;2.50;;
32790;SDS011;19143;59.322;14.502;2023-04-24T03:25:03;2.00;;;1.90;;
32790;SDS011;19143;59.322;14.502;2023-04-24T03:27:31;1.33;;;1.33;;
32790;SDS011;19143;59.322;14.502;2023-04-24T03:29:59;1.40;;;1.40;;
32790;SDS011;19143;59.322;14.502;2023-04-24T03:32:34;1.30;;;1.30;;
32790;SDS011;19143;59.322;14.502;2023-04-24T03:35:01;3.53;;;1.20;;
32790;SDS011;19143;59.322;14.502;2023-04-24T03:37:31;1.40;;;1.40;;
32790;SDS011;19143;59.322;14.502;2023-04-24T04:07:42;1.80;;;1.70;;
32790;SDS011;19143;59.322;14.502;2023-04-24T04:10:10;1.30;;;1.30;;
32790;SDS011;19143;59.322;14.502;2023-04-24T04:12:54;1.70;;;1.50;;
32790;SDS011;19143;59.322;14.502;2023-04-24T04:20:54;1.47;;;1.47;;
32790;SDS011;19143;59.322;14.502;2023-04-24T04:23:30;2.33;;;1.50;;
32790;SDS011;19143;59.322;14.502;2023-04-24T04:25:59;1.77;;;1.50;;
32790;SDS011;19143;59.322;14.502;2023-04-24T04:28:29;2.10;;;1.80;;
32790;SDS011;19143;59.322;14.502;2023-04-24T04:31:18;1.43;;;1.33;;
32790;SDS011;19143;59.322;14.502;2023-04-24T04:33:59;1.50;;;1.50;;
32790;SDS011;19143;59.322;14.502;2023-04-24T04:36:27;1.90;;;1.80;;
32790;SDS011;19143;59.322;14.502;2023-04-24T04:43:58;1.60;;;1.50;;
32790;SDS011;19143;59.322;14.502;2023-04-24T04:46:26;1.40;;;1.30;;
32790;SDS011;19143;59.322;14.502;2023-04-24T04:49:03;1.33;;;1.33;;
32790;SDS011;19143;59.322;14.502;2023-04-24T04:51:34;1.30;;;1.30;;
32790;SDS011;19143;59.322;14.502;2023-04-24T04:54:04;1.60;;;1.60;;
32790;SDS011;19143;59.322;14.502;2023-04-24T04:56:42;1.30;;;1.30;;
32790;SDS011;19143;59.322;14.502;2023-04-24T05:07:51;5.10;;;1.47;;
32790;SDS011;19143;59.322;14.502;2023-04-24T05:13:03;1.10;;;1.10;;
32790;SDS011;19143;59.322;14.502;2023-04-24T05:15:32;1.20;;;1.20;;
32790;SDS011;19143;59.322;14.502;2023-04-24T05:18:01;1.73;;;1.53;;
32790;SDS011;19143;59.322;14.502;2023-04-24T05:20:29;3.90;;;1.53;;
32790;SDS011;19143;59.322;14.502;2023-04-24T05:23:25;1.40;;;1.40;;
32790;SDS011;19143;59.322;14.502;2023-04-24T05:25:59;15.40;;;1.70;;
32790;SDS011;19143;59.322;14.502;2023-04-24T05:28:25;1.50;;;1.50;;
32790;SDS011;19143;59.322;14.502;2023-04-24T05:30:54;1.60;;;1.50;;
32790;SDS011;19143;59.322;14.502;2023-04-24T05:33:21;3.80;;;1.57;;
32790;SDS011;19143;59.322;14.502;2023-04-24T05:35:48;1.47;;;1.37;;
32790;SDS011;19143;59.322;14.502;2023-04-24T05:38:15;1.37;;;1.37;;
32790;SDS011;19143;59.322;14.502;2023-04-24T05:41:00;7.70;;;1.47;;
32790;SDS011;19143;59.322;14.502;2023-04-24T05:43:40;3.20;;;1.40;;
32790;SDS011;19143;59.322;14.502;2023-04-24T05:46:21;5.00;;;1.60;;
32790;SDS011;19143;59.322;14.502;2023-04-24T05:48:51;1.60;;;1.50;;
32790;SDS011;19143;59.322;14.502;2023-04-24T05:51:18;1.30;;;1.30;;
32790;SDS011;19143;59.322;14.502;2023-04-24T05:53:54;1.10;;;1.10;;
32790;SDS011;19143;59.322;14.502;2023-04-24T05:56:28;1.30;;;1.30;;
32790;SDS011;19143;59.322;14.502;2023-04-24T05:58:57;1.40;;;1.40;;
32790;SDS011;19143;59.322;14.502;2023-04-24T06:01:23;1.50;;;1.40;;
32790;SDS011;19143;59.322;14.502;2023-04-24T06:03:50;3.37;;;1.03;;
32790;SDS011;19143;59.322;14.502;2023-04-24T06:06:18;2.53;;;1.60;;
32790;SDS011;19143;59.322;14.502;2023-04-24T06:18:59;1.07;;;1.07;;
32790;SDS011;19143;59.322;14.502;2023-04-24T06:21:25;1.13;;;1.13;;
32790;SDS011;19143;59.322;14.502;2023-04-24T06:23:54;3.80;;;1.20;;
32790;SDS011;19143;59.322;14.502;2023-04-24T06:26:36;1.20;;;1.20;;
32790;SDS011;19143;59.322;14.502;2023-04-24T06:29:05;3.43;;;1.00;;
32790;SDS011;19143;59.322;14.502;2023-04-24T06:31:49;1.33;;;1.00;;
32790;SDS011;19143;59.322;14.502;2023-04-24T06:40:59;17.80;;;2.03;;
32790;SDS011;19143;59.322;14.502;2023-04-24T06:43:25;1.00;;;1.00;;
32790;SDS011;19143;59.322;14.502;2023-04-24T06:45:54;2.87;;;0.97;;
32790;SDS011;19143;59.322;14.502;2023-04-24T06:48:21;3.13;;;1.10;;
32790;SDS011;19143;59.322;14.502;2023-04-24T06:50:49;0.90;;;0.90;;
32790;SDS011;19143;59.322;14.502;2023-04-24T06:53:17;1.30;;;1.30;;
32790;SDS011;19143;59.322;14.502;2023-04-24T06:55:44;1.00;;;1.00;;
32790;SDS011;19143;59.322;14.502;2023-04-24T06:58:13;0.93;;;0.93;;
32790;SDS011;19143;59.322;14.502;2023-04-24T07:00:44;0.90;;;0.90;;
32790;SDS011;19143;59.322;14.502;2023-04-24T07:03:10;2.87;;;1.07;;
32790;SDS011;19143;59.322;14.502;2023-04-24T07:05:39;1.80;;;1.70;;
32790;SDS011;19143;59.322;14.502;2023-04-24T07:08:20;6.73;;;1.80;;
32790;SDS011;19143;59.322;14.502;2023-04-24T07:11:01;1.40;;;1.40;;
32790;SDS011;19143;59.322;14.502;2023-04-24T07:13:45;3.30;;;1.37;;
32790;SDS011;19143;59.322;14.502;2023-04-24T07:16:27;1.53;;;1.43;;
32790;SDS011;19143;59.322;14.502;2023-04-24T07:18:56;1.40;;;1.30;;
32790;SDS011;19143;59.322;14.502;2023-04-24T07:21:24;1.23;;;1.23;;
32790;SDS011;19143;59.322;14.502;2023-04-24T07:23:54;2.43;;;1.33;;
32790;SDS011;19143;59.322;14.502;2023-04-24T07:26:25;1.63;;;1.60;;
32790;SDS011;19143;59.322;14.502;2023-04-24T07:29:00;1.70;;;1.60;;
32790;SDS011;19143;59.322;14.502;2023-04-24T07:31:29;2.30;;;2.20;;
32790;SDS011;19143;59.322;14.502;2023-04-24T07:33:58;2.33;;;2.20;;
32790;SDS011;19143;59.322;14.502;2023-04-24T07:36:29;4.57;;;2.50;;
32790;SDS011;19143;59.322;14.502;2023-04-24T07:38:57;3.07;;;2.87;;
32790;SDS011;19143;59.322;14.502;2023-04-24T07:41:25;6.57;;;3.27;;
32790;SDS011;19143;59.322;14.502;2023-04-24T07:43:54;4.33;;;3.10;;
32790;SDS011;19143;59.322;14.502;2023-04-24T07:46:26;3.27;;;2.93;;
32790;SDS011;19143;59.322;14.502;2023-04-24T07:49:00;4.17;;;3.10;;
32790;SDS011;19143;59.322;14.502;2023-04-24T07:51:33;3.13;;;2.93;;
32790;SDS011;19143;59.322;14.502;2023-04-24T07:54:03;4.23;;;3.20;;
32790;SDS011;19143;59.322;14.502;2023-04-24T07:56:30;12.33;;;3.47;;
32790;SDS011;19143;59.322;14.502;2023-04-24T07:59:02;3.63;;;3.10;;
32790;SDS011;19143;59.322;14.502;2023-04-24T08:01:32;3.17;;;2.97;;
32790;SDS011;19143;59.322;14.502;2023-04-24T08:04:00;6.53;;;3.20;;
32790;SDS011;19143;59.322;14.502;2023-04-24T08:06:37;2.43;;;2.33;;
32790;SDS011;19143;59.322;14.502;2023-04-24T08:09:15;2.40;;;2.20;;
32790;SDS011;19143;59.322;14.502;2023-04-24T08:11:51;7.70;;;2.73;;
32790;SDS011;19143;59.322;14.502;2023-04-24T08:14:20;3.20;;;2.17;;
32790;SDS011;19143;59.322;14.502;2023-04-24T08:19:46;2.57;;;2.13;;
32790;SDS011;19143;59.322;14.502;2023-04-24T08:22:16;2.43;;;2.23;;
32790;SDS011;19143;59.322;14.502;2023-04-24T08:24:59;2.37;;;2.17;;
32790;SDS011;19143;59.322;14.502;2023-04-24T08:27:28;2.67;;;2.20;;
32790;SDS011;19143;59.322;14.502;2023-04-24T08:30:05;3.00;;;2.43;;
32790;SDS011;19143;59.322;14.502;2023-04-24T08:32:47;2.30;;;2.20;;
32790;SDS011;19143;59.322;14.502;2023-04-24T08:35:16;2.10;;;2.00;;
32790;SDS011;19143;59.322;14.502;2023-04-24T08:37:44;2.13;;;1.93;;
32790;SDS011;19143;59.322;14.502;2023-04-24T08:40:17;2.67;;;1.77;;
32790;SDS011;19143;59.322;14.502;2023-04-24T08:54:27;2.43;;;2.33;;
32790;SDS011;19143;59.322;14.502;2023-04-24T08:57:08;4.33;;;2.67;;
32790;SDS011;19143;59.322;14.502;2023-04-24T08:59:36;3.10;;;2.90;;
32790;SDS011;19143;59.322;14.502;2023-04-24T09:02:04;2.47;;;2.27;;
32790;SDS011;19143;59.322;14.502;2023-04-24T09:04:34;5.90;;;2.57;;
32790;SDS011;19143;59.322;14.502;2023-04-24T09:07:02;2.40;;;2.20;;
32790;SDS011;19143;59.322;14.502;2023-04-24T09:09:39;2.63;;;2.43;;
32790;SDS011;19143;59.322;14.502;2023-04-24T09:12:08;2.33;;;2.13;;
32790;SDS011;19143;59.322;14.502;2023-04-24T09:14:36;3.27;;;2.60;;
32790;SDS011;19143;59.322;14.502;2023-04-24T09:17:08;2.30;;;2.20;;
32790;SDS011;19143;59.322;14.502;2023-04-24T09:19:36;5.17;;;2.50;;
32790;SDS011;19143;59.322;14.502;2023-04-24T09:22:04;4.23;;;2.70;;
32790;SDS011;19143;59.322;14.502;2023-04-24T09:24:31;2.63;;;2.43;;
32790;SDS011;19143;59.322;14.502;2023-04-24T09:27:00;8.20;;;2.90;;
32790;SDS011;19143;59.322;14.502;2023-04-24T09:29:28;2.43;;;2.23;;
32790;SDS011;19143;59.322;14.502;2023-04-24T09:31:57;3.00;;;2.80;;
32790;SDS011;19143;59.322;14.502;2023-04-24T09:34:25;2.50;;;2.40;;
32790;SDS011;19143;59.322;14.502;2023-04-24T09:36:53;7.80;;;3.00;;
32790;SDS011;19143;59.322;14.502;2023-04-24T09:39:26;3.33;;;3.03;;
32790;SDS011;19143;59.322;14.502;2023-04-24T09:41:54;3.10;;;2.90;;
32790;SDS011;19143;59.322;14.502;2023-04-24T09:44:24;13.57;;;3.57;;
32790;SDS011;19143;59.322;14.502;2023-04-24T09:52:10;14.20;;;4.20;;
32790;SDS011;19143;59.322;14.502;2023-04-24T09:54:58;5.13;;;3.03;;
32790;SDS011;19143;59.322;14.502;2023-04-24T09:57:28;13.37;;;4.07;;
32790;SDS011;19143;59.322;14.502;2023-04-24T10:00:01;21.27;;;5.60;;
32790;SDS011;19143;59.322;14.502;2023-04-24T10:02:43;7.53;;;4.47;;
32790;SDS011;19143;59.322;14.502;2023-04-24T10:05:27;4.90;;;3.53;;
32790;SDS011;19143;59.322;14.502;2023-04-24T10:07:59;7.07;;;4.30;;
32790;SDS011;19143;59.322;14.502;2023-04-24T10:10:27;7.23;;;4.13;;
32790;SDS011;19143;59.322;14.502;2023-04-24T10:12:54;9.37;;;5.13;;
32790;SDS011;19143;59.322;14.502;2023-04-24T10:15:22;5.97;;;4.60;;
32790;SDS011;19143;59.322;14.502;2023-04-24T10:17:50;7.33;;;5.13;;
32790;SDS011;19143;59.322;14.502;2023-04-24T10:20:21;10.37;;;5.90;;
32790;SDS011;19143;59.322;14.502;2023-04-24T10:22:51;7.73;;;5.60;;
32790;SDS011;19143;59.322;14.502;2023-04-24T10:25:36;8.70;;;5.23;;
32790;SDS011;19143;59.322;14.502;2023-04-24T10:28:16;8.90;;;5.37;;
32790;SDS011;19143;59.322;14.502;2023-04-24T10:31:02;7.40;;;5.40;;
32790;SDS011;19143;59.322;14.502;2023-04-24T10:33:35;7.87;;;5.13;;
32790;SDS011;19143;59.322;14.502;2023-04-24T10:36:06;6.33;;;4.80;;
32790;SDS011;19143;59.322;14.502;2023-04-24T10:38:35;5.93;;;4.70;;
32790;SDS011;19143;59.322;14.502;2023-04-24T10:41:09;8.27;;;4.63;;
32790;SDS011;19143;59.322;14.502;2023-04-24T11:47:29;2.97;;;2.77;;
32790;SDS011;19143;59.322;14.502;2023-04-24T11:50:04;3.27;;;2.77;;
32790;SDS011;19143;59.322;14.502;2023-04-24T11:52:33;6.13;;;2.93;;
32790;SDS011;19143;59.322;14.502;2023-04-24T14:01:14;7.97;;;4.60;;
32790;SDS011;19143;59.322;14.502;2023-04-24T14:03:49;8.20;;;5.03;;
32790;SDS011;19143;59.322;14.502;2023-04-24T14:06:20;7.67;;;4.50;;
32790;SDS011;19143;59.322;14.502;2023-04-24T14:08:50;8.97;;;5.03;;
32790;SDS011;19143;59.322;14.502;2023-04-24T14:11:18;6.13;;;4.47;;
32790;SDS011;19143;59.322;14.502;2023-04-24T14:13:45;6.83;;;4.20;;
32790;SDS011;19143;59.322;14.502;2023-04-24T14:16:14;5.10;;;4.60;;
32790;SDS011;19143;59.322;14.502;2023-04-24T14:18:41;8.73;;;4.73;;
32790;SDS011;19143;59.322;14.502;2023-04-24T14:21:11;5.87;;;4.07;;
32790;SDS011;19143;59.322;14.502;2023-04-24T14:23:43;9.83;;;5.00;;
32790;SDS011;19143;59.322;14.502;2023-04-24T14:26:10;11.57;;;4.50;;
32790;SDS011;19143;59.322;14.502;2023-04-24T14:28:37;5.67;;;3.93;;
32790;SDS011;19143;59.322;14.502;2023-04-24T14:31:04;12.33;;;4.70;;
32790;SDS011;19143;59.322;14.502;2023-04-24T14:33:32;10.93;;;4.47;;
32790;SDS011;19143;59.322;14.502;2023-04-24T14:35:59;14.33;;;4.67;;
32790;SDS011;19143;59.322;14.502;2023-04-24T14:38:27;7.10;;;4.43;;
32790;SDS011;19143;59.322;14.502;2023-04-24T14:40:54;6.77;;;4.37;;
32790;SDS011;19143;59.322;14.502;2023-04-24T14:43:21;5.77;;;4.00;;
32790;SDS011;19143;59.322;14.502;2023-04-24T14:45:48;7.47;;;4.47;;
32790;SDS011;19143;59.322;14.502;2023-04-24T14:48:15;5.57;;;4.30;;
32790;SDS011;19143;59.322;14.502;2023-04-24T14:50:46;6.77;;;4.40;;
32790;SDS011;19143;59.322;14.502;2023-04-24T14:53:20;5.40;;;4.60;;
32790;SDS011;19143;59.322;14.502;2023-04-24T14:56:01;8.40;;;4.67;;
32790;SDS011;19143;59.322;14.502;2023-04-24T14:58:28;5.57;;;4.90;;
32790;SDS011;19143;59.322;14.502;2023-04-24T15:00:55;9.73;;;4.63;;
32790;SDS011;19143;59.322;14.502;2023-04-24T15:03:23;7.37;;;5.10;;
32790;SDS011;19143;59.322;14.502;2023-04-24T15:05:53;10.53;;;4.97;;
32790;SDS011;19143;59.322;14.502;2023-04-24T15:08:20;7.83;;;4.47;;
32790;SDS011;19143;59.322;14.502;2023-04-24T15:10:47;7.67;;;4.93;;
32790;SDS011;19143;59.322;14.502;2023-04-24T15:13:15;9.10;;;4.77;;
32790;SDS011;19143;59.322;14.502;2023-04-24T15:15:42;6.67;;;4.73;;
32790;SDS011;19143;59.322;14.502;2023-04-24T15:18:09;11.13;;;4.83;;
32790;SDS011;19143;59.322;14.502;2023-04-24T15:20:36;9.10;;;4.77;;
32790;SDS011;19143;59.322;14.502;2023-04-24T15:23:08;5.00;;;4.43;;
32790;SDS011;19143;59.322;14.502;2023-04-24T15:25:37;5.37;;;4.27;;
32790;SDS011;19143;59.322;14.502;2023-04-24T15:28:06;7.43;;;4.50;;
32790;SDS011;19143;59.322;14.502;2023-04-24T15:30:33;5.30;;;4.40;;
32790;SDS011;19143;59.322;14.502;2023-04-24T15:33:00;12.00;;;4.97;;
32790;SDS011;19143;59.322;14.502;2023-04-24T15:35:27;8.83;;;4.13;;
32790;SDS011;19143;59.322;14.502;2023-04-24T15:37:54;8.53;;;4.87;;
32790;SDS011;19143;59.322;14.502;2023-04-24T15:40:23;14.90;;;5.13;;
32790;SDS011;19143;59.322;14.502;2023-04-24T15:42:50;6.17;;;4.43;;
32790;SDS011;19143;59.322;14.502;2023-04-24T15:45:17;11.30;;;5.17;;
32790;SDS011;19143;59.322;14.502;2023-04-24T15:50:19;6.43;;;5.03;;
32790;SDS011;19143;59.322;14.502;2023-04-24T15:52:48;10.13;;;5.53;;
32790;SDS011;19143;59.322;14.502;2023-04-24T15:55:14;11.27;;;5.80;;
32790;SDS011;19143;59.322;14.502;2023-04-24T15:57:43;10.77;;;5.93;;
32790;SDS011;19143;59.322;14.502;2023-04-24T16:00:11;10.93;;;5.50;;
32790;SDS011;19143;59.322;14.502;2023-04-24T16:02:46;7.67;;;5.57;;
32790;SDS011;19143;59.322;14.502;2023-04-24T16:05:14;8.33;;;6.47;;
32790;SDS011;19143;59.322;14.502;2023-04-24T16:07:44;10.23;;;6.87;;
32790;SDS011;19143;59.322;14.502;2023-04-24T16:10:11;9.57;;;6.10;;
32790;SDS011;19143;59.322;14.502;2023-04-24T16:12:38;11.87;;;6.73;;
32790;SDS011;19143;59.322;14.502;2023-04-24T16:15:07;10.37;;;6.00;;
32790;SDS011;19143;59.322;14.502;2023-04-24T16:17:33;9.17;;;6.80;;
32790;SDS011;19143;59.322;14.502;2023-04-24T16:20:00;10.63;;;6.70;;
32790;SDS011;19143;59.322;14.502;2023-04-24T16:22:27;8.77;;;6.20;;
32790;SDS011;19143;59.322;14.502;2023-04-24T16:24:54;9.57;;;5.90;;
32790;SDS011;19143;59.322;14.502;2023-04-24T16:27:21;13.00;;;6.97;;
32790;SDS011;19143;59.322;14.502;2023-04-24T16:29:47;14.07;;;7.10;;
32790;SDS011;19143;59.322;14.502;2023-04-24T16:32:16;11.20;;;6.83;;
32790;SDS011;19143;59.322;14.502;2023-04-24T16:34:43;12.17;;;7.20;;
32790;SDS011;19143;59.322;14.502;2023-04-24T16:37:11;11.47;;;7.47;;
32790;SDS011;19143;59.322;14.502;2023-04-24T16:39:43;13.23;;;7.20;;
32790;SDS011;19143;59.322;14.502;2023-04-24T16:42:10;17.03;;;7.13;;
32790;SDS011;19143;59.322;14.502;2023-04-24T16:44:38;10.00;;;6.97;;
32790;SDS011;19143;59.322;14.502;2023-04-24T16:47:05;12.97;;;7.13;;
32790;SDS011;19143;59.322;14.502;2023-04-24T16:49:35;13.87;;;6.63;;
32790;SDS011;19143;59.322;14.502;2023-04-24T16:52:02;10.87;;;6.67;;
32790;SDS011;19143;59.322;14.502;2023-04-24T16:54:29;12.83;;;7.20;;
32790;SDS011;19143;59.322;14.502;2023-04-24T16:56:58;13.90;;;7.80;;
32790;SDS011;19143;59.322;14.502;2023-04-24T16:59:39;10.93;;;7.07;;
32790;SDS011;19143;59.322;14.502;2023-04-24T17:02:06;14.10;;;7.53;;
32790;SDS011;19143;59.322;14.502;2023-04-24T17:04:37;13.57;;;8.00;;
32790;SDS011;19143;59.322;14.502;2023-04-24T17:07:04;12.30;;;7.63;;
32790;SDS011;19143;59.322;14.502;2023-04-24T17:09:30;11.57;;;7.03;;
32790;SDS011;19143;59.322;14.502;2023-04-24T17:11:57;11.57;;;7.43;;
32790;SDS011;19143;59.322;14.502;2023-04-24T17:14:24;11.30;;;6.57;;
32790;SDS011;19143;59.322;14.502;2023-04-24T17:16:51;14.30;;;7.83;;
32790;SDS011;19143;59.322;14.502;2023-04-24T17:19:20;13.03;;;6.30;;
32790;SDS011;19143;59.322;14.502;2023-04-24T17:21:49;10.43;;;6.67;;
32790;SDS011;19143;59.322;14.502;2023-04-24T17:26:47;12.47;;;7.10;;
32790;SDS011;19143;59.322;14.502;2023-04-24T17:29:15;14.60;;;8.20;;
32790;SDS011;19143;59.322;14.502;2023-04-24T17:32:04;12.80;;;8.17;;
32790;SDS011;19143;59.322;14.502;2023-04-24T17:34:30;12.47;;;7.20;;
32790;SDS011;19143;59.322;14.502;2023-04-24T17:37:00;13.27;;;7.70;;
32790;SDS011;19143;59.322;14.502;2023-04-24T17:39:28;12.33;;;7.67;;
32790;SDS011;19143;59.322;14.502;2023-04-24T17:41:55;12.33;;;7.30;;
32790;SDS011;19143;59.322;14.502;2023-04-24T17:52:52;14.30;;;7.43;;
32790;SDS011;19143;59.322;14.502;2023-04-24T17:57:51;11.87;;;7.40;;
32790;SDS011;19143;59.322;14.502;2023-04-24T18:00:21;14.90;;;7.33;;
32790;SDS011;19143;59.322;14.502;2023-04-24T18:02:59;13.40;;;7.30;;
32790;SDS011;19143;59.322;14.502;2023-04-24T18:05:34;12.23;;;7.53;;
32790;SDS011;19143;59.322;14.502;2023-04-24T18:08:03;13.97;;;6.73;;
32790;SDS011;19143;59.322;14.502;2023-04-24T18:10:30;10.60;;;6.97;;
32790;SDS011;19143;59.322;14.502;2023-04-24T18:12:57;16.50;;;8.03;;
32790;SDS011;19143;59.322;14.502;2023-04-24T18:15:25;13.63;;;7.93;;
32790;SDS011;19143;59.322;14.502;2023-04-24T18:17:54;15.97;;;7.30;;
32790;SDS011;19143;59.322;14.502;2023-04-24T18:20:21;12.23;;;7.77;;
32790;SDS011;19143;59.322;14.502;2023-04-24T18:22:52;14.03;;;7.60;;
32790;SDS011;19143;59.322;14.502;2023-04-24T18:25:24;16.20;;;8.33;;
32790;SDS011;19143;59.322;14.502;2023-04-24T18:27:51;15.47;;;8.03;;
32790;SDS011;19143;59.322;14.502;2023-04-24T18:30:21;14.73;;;8.57;;
32790;SDS011;19143;59.322;14.502;2023-04-24T18:32:48;14.07;;;8.07;;
32790;SDS011;19143;59.322;14.502;2023-04-24T18:35:23;15.33;;;8.60;;
32790;SDS011;19143;59.322;14.502;2023-04-24T18:37:50;15.33;;;8.07;;
32790;SDS011;19143;59.322;14.502;2023-04-24T18:40:17;12.87;;;7.90;;
32790;SDS011;19143;59.322;14.502;2023-04-24T18:42:46;15.23;;;7.87;;
32790;SDS011;19143;59.322;14.502;2023-04-24T18:45:13;12.13;;;7.70;;
32790;SDS011;19143;59.322;14.502;2023-04-24T18:47:43;14.00;;;8.30;;
32790;SDS011;19143;59.322;14.502;2023-04-24T18:50:20;12.00;;;7.60;;
32790;SDS011;19143;59.322;14.502;2023-04-24T18:52:49;12.00;;;7.70;;
32790;SDS011;19143;59.322;14.502;2023-04-24T18:55:16;11.50;;;7.33;;
32790;SDS011;19143;59.322;14.502;2023-04-24T18:57:43;11.40;;;7.90;;
32790;SDS011;19143;59.322;14.502;2023-04-24T19:00:13;15.00;;;7.27;;
32790;SDS011;19143;59.322;14.502;2023-04-24T19:02:39;13.67;;;6.77;;
32790;SDS011;19143;59.322;14.502;2023-04-24T19:05:06;13.93;;;8.27;;
32790;SDS011;19143;59.322;14.502;2023-04-24T19:07:34;14.70;;;8.00;;
32790;SDS011;19143;59.322;14.502;2023-04-24T19:10:01;21.63;;;7.80;;
32790;SDS011;19143;59.322;14.502;2023-04-24T19:12:27;19.13;;;8.87;;
32790;SDS011;19143;59.322;14.502;2023-04-24T19:14:54;16.57;;;7.93;;
32790;SDS011;19143;59.322;14.502;2023-04-24T19:17:25;16.80;;;8.03;;
32790;SDS011;19143;59.322;14.502;2023-04-24T19:19:52;15.93;;;8.70;;
32790;SDS011;19143;59.322;14.502;2023-04-24T19:22:19;13.23;;;8.17;;
32790;SDS011;19143;59.322;14.502;2023-04-24T19:24:47;15.27;;;9.10;;
32790;SDS011;19143;59.322;14.502;2023-04-24T19:27:13;14.03;;;8.87;;
32790;SDS011;19143;59.322;14.502;2023-04-24T19:29:40;17.10;;;9.03;;
32790;SDS011;19143;59.322;14.502;2023-04-24T19:32:08;18.40;;;9.43;;
32790;SDS011;19143;59.322;14.502;2023-04-24T19:34:39;18.33;;;8.97;;
32790;SDS011;19143;59.322;14.502;2023-04-24T19:37:06;19.97;;;10.07;;
32790;SDS011;19143;59.322;14.502;2023-04-24T19:40:07;19.20;;;9.60;;
32790;SDS011;19143;59.322;14.502;2023-04-24T19:42:43;16.00;;;8.63;;
32790;SDS011;19143;59.322;14.502;2023-04-24T19:45:11;16.80;;;8.60;;
32790;SDS011;19143;59.322;14.502;2023-04-24T19:47:38;15.57;;;8.43;;
32790;SDS011;19143;59.322;14.502;2023-04-24T19:50:09;18.80;;;9.63;;
32790;SDS011;19143;59.322;14.502;2023-04-24T19:52:37;18.50;;;9.17;;
32790;SDS011;19143;59.322;14.502;2023-04-24T19:55:11;21.53;;;9.97;;
32790;SDS011;19143;59.322;14.502;2023-04-24T19:57:38;19.13;;;9.70;;
32790;SDS011;19143;59.322;14.502;2023-04-24T20:00:05;22.27;;;9.20;;
32790;SDS011;19143;59.322;14.502;2023-04-24T20:02:40;16.93;;;8.93;;
32790;SDS011;19143;59.322;14.502;2023-04-24T20:05:07;14.80;;;8.57;;
32790;SDS011;19143;59.322;14.502;2023-04-24T20:07:34;21.57;;;9.87;;
32790;SDS011;19143;59.322;14.502;2023-04-24T20:10:01;15.83;;;8.20;;
32790;SDS011;19143;59.322;14.502;2023-04-24T20:12:29;19.13;;;8.83;;
32790;SDS011;19143;59.322;14.502;2023-04-24T20:14:56;20.03;;;9.87;;
32790;SDS011;19143;59.322;14.502;2023-04-24T20:17:22;18.00;;;8.37;;
32790;SDS011;19143;59.322;14.502;2023-04-24T20:19:49;18.50;;;9.37;;
32790;SDS011;19143;59.322;14.502;2023-04-24T20:22:15;16.20;;;9.07;;
32790;SDS011;19143;59.322;14.502;2023-04-24T20:24:42;18.03;;;8.87;;
32790;SDS011;19143;59.322;14.502;2023-04-24T20:27:10;15.53;;;8.63;;
32790;SDS011;19143;59.322;14.502;2023-04-24T20:29:38;18.17;;;8.67;;
32790;SDS011;19143;59.322;14.502;2023-04-24T20:32:05;21.73;;;9.13;;
32790;SDS011;19143;59.322;14.502;2023-04-24T20:34:32;14.20;;;7.97;;
32790;SDS011;19143;59.322;14.502;2023-04-24T20:36:58;18.33;;;7.63;;
32790;SDS011;19143;59.322;14.502;2023-04-24T20:39:28;18.23;;;7.67;;
32790;SDS011;19143;59.322;14.502;2023-04-24T20:41:55;13.40;;;7.33;;
32790;SDS011;19143;59.322;14.502;2023-04-24T20:44:22;15.53;;;7.23;;